Terminal Aerodrome Forecast
Issued by NWS

Home | Current Version | Previous Version | Text Only | Print | Product List | Glossary On
Versions: 1 2 3 4 5 6 7 8 9 10 11 12 13 14 15 16 17 18 19 20 21 22 23
000
FTUS43 KGRB 270500
TAFATW
TAF
KATW 270536Z 2706/2806 30008KT 5SM -SN BR SCT025 BKN040
      TEMPO 2706/2708 2SM -SN BR BKN022
     FM270900 32010G15KT 6SM -SN SCT020 BKN035
     FM271200 32012G21KT P6SM -SN SCT025 BKN050
     FM271900 32009KT P6SM SCT050
     FM272300 29003KT P6SM SKC=

USA.gov is the U.S. government's official web portal to all federal, state and local government web resources and services.